createdAt,value
2024-04-15T00:02:20.145Z,53.43
2024-04-15T00:06:45.658Z,53.74
2024-04-15T00:11:10.694Z,53.85
2024-04-15T00:15:38.710Z,54.09
2024-04-15T00:20:04.094Z,54.35
2024-04-15T00:24:29.429Z,54.39
2024-04-15T00:28:54.441Z,54.50
2024-04-15T00:33:24.228Z,54.88
2024-04-15T00:37:50.173Z,55.04
2024-04-15T00:42:15.492Z,54.91
2024-04-15T00:46:40.984Z,54.89
2024-04-15T00:51:09.204Z,54.84
2024-04-15T00:55:37.420Z,55.34
2024-04-15T01:00:03.501Z,55.20
2024-04-15T01:04:28.603Z,55.37
2024-04-15T01:08:56.651Z,55.78
2024-04-15T01:13:21.806Z,55.67
2024-04-15T01:17:47.132Z,56.07
2024-04-15T01:22:14.792Z,56.13
2024-04-15T01:26:49.331Z,56.18
2024-04-15T01:31:14.371Z,56.35
2024-04-15T01:35:40.095Z,56.32
2024-04-15T01:40:05.153Z,56.69
2024-04-15T01:44:33.198Z,57.54
2024-04-15T01:48:58.551Z,57.53
2024-04-15T01:53:24.294Z,57.29
2024-04-15T01:57:49.386Z,57.82
2024-04-15T02:02:17.432Z,57.99
2024-04-15T02:06:42.533Z,58.17
2024-04-15T02:11:07.912Z,58.36
2024-04-15T02:15:33.028Z,58.41
2024-04-15T02:20:01.122Z,58.71
2024-04-15T02:24:27.313Z,58.83
2024-04-15T02:28:52.753Z,59.01
2024-04-15T02:33:17.931Z,59.06
2024-04-15T02:37:46.221Z,59.19
2024-04-15T02:42:11.202Z,59.52
2024-04-15T02:46:36.647Z,59.88
2024-04-15T02:51:01.913Z,59.47
2024-04-15T02:55:30.729Z,60.00
2024-04-15T02:59:56.329Z,60.41
2024-04-15T03:04:21.955Z,60.46
2024-04-15T03:08:47.147Z,60.83
2024-04-15T03:13:15.316Z,60.73
2024-04-15T03:17:40.728Z,60.93
2024-04-15T03:22:06.462Z,61.08
2024-04-15T03:26:31.700Z,61.24
2024-04-15T03:31:00.299Z,61.22
2024-04-15T03:35:25.766Z,61.29
2024-04-15T03:39:51.591Z,61.35
2024-04-15T03:44:16.718Z,61.73
2024-04-15T03:48:45.081Z,61.61
2024-04-15T03:53:10.268Z,61.48
2024-04-15T03:57:36.281Z,61.94
2024-04-15T04:02:01.434Z,61.60
2024-04-15T04:06:34.377Z,61.98
2024-04-15T04:11:07.441Z,62.56
2024-04-15T04:15:33.011Z,63.24
2024-04-15T04:19:58.206Z,63.81
2024-04-15T04:24:26.320Z,63.88
2024-04-15T04:28:51.502Z,64.30
2024-04-15T04:33:17.069Z,64.45
2024-04-15T04:37:43.092Z,64.69
2024-04-15T04:42:11.428Z,64.85
2024-04-15T04:46:36.609Z,65.11
2024-04-15T04:51:08.658Z,65.74
2024-04-15T04:55:38.160Z,65.85
2024-04-15T05:00:07.228Z,66.11
2024-04-15T05:04:34.721Z,66.36
2024-04-15T05:09:00.423Z,66.66
2024-04-15T05:13:25.522Z,66.72
2024-04-15T05:17:54.194Z,66.58
2024-04-15T05:22:19.430Z,66.63
2024-04-15T05:26:45.040Z,67.23
2024-04-15T05:31:10.226Z,66.78
2024-04-15T05:35:38.114Z,66.28
2024-04-15T05:40:03.563Z,66.36
2024-04-15T05:49:15.801Z,65.73
2024-04-15T05:53:45.022Z,65.59
2024-04-15T05:58:10.690Z,65.23
2024-04-15T06:02:36.185Z,64.78
2024-04-15T06:07:01.562Z,64.25
2024-04-15T06:11:29.777Z,64.19
2024-04-15T06:15:54.998Z,63.78
2024-04-15T06:20:22.759Z,63.50
2024-04-15T06:24:48.924Z,63.35
2024-04-15T06:29:17.491Z,62.78
2024-04-15T06:33:42.667Z,62.69
2024-04-15T06:38:10.682Z,62.08
2024-04-15T06:42:36.214Z,62.02
2024-04-15T06:47:04.582Z,61.72
2024-04-15T06:51:30.428Z,60.92
2024-04-15T06:55:56.163Z,60.99
2024-04-15T07:00:21.797Z,61.00
2024-04-15T07:04:53.666Z,60.70
2024-04-15T07:09:18.894Z,60.63
2024-04-15T07:13:44.372Z,60.50
2024-04-15T07:18:12.297Z,59.89
2024-04-15T07:22:41.074Z,59.38
2024-04-15T07:27:06.257Z,59.03
2024-04-15T07:31:31.856Z,59.09
2024-04-15T07:35:57.843Z,59.59
2024-04-15T07:40:26.313Z,59.35
2024-04-15T07:44:53.953Z,58.70
2024-04-15T07:49:19.940Z,59.03
2024-04-15T07:53:45.363Z,58.75
2024-04-15T07:58:13.240Z,58.07
2024-04-15T08:02:39.087Z,58.40
2024-04-15T08:07:09.606Z,57.42
2024-04-15T08:11:39.918Z,56.03
2024-04-15T08:16:08.445Z,55.57
2024-04-15T08:20:33.674Z,54.52
2024-04-15T08:24:59.361Z,54.09
2024-04-15T08:29:25.173Z,53.03
2024-04-15T08:33:53.452Z,52.29
2024-04-15T08:38:19.760Z,51.90
2024-04-15T08:42:52.436Z,51.91
2024-04-15T08:47:26.670Z,51.01
2024-04-15T08:51:59.787Z,51.29
2024-04-15T08:56:27.938Z,51.87
2024-04-15T09:00:54.070Z,52.66
2024-04-15T09:05:19.696Z,53.05
2024-04-15T09:09:47.981Z,52.80
2024-04-15T09:14:13.172Z,53.28
2024-04-15T09:18:39.031Z,52.81
2024-04-15T09:23:06.725Z,52.55
2024-04-15T09:27:35.843Z,52.77
2024-04-15T09:32:01.158Z,52.67
2024-04-15T09:36:26.803Z,52.88
2024-04-15T09:40:53.579Z,52.86
2024-04-15T09:45:23.663Z,52.41
2024-04-15T09:49:50.890Z,52.86
2024-04-15T09:54:19.059Z,52.79
2024-04-15T09:58:47.559Z,52.23
2024-04-15T10:03:23.839Z,52.13
2024-04-15T10:07:53.768Z,52.21
2024-04-15T10:12:19.988Z,52.26
2024-04-15T10:16:49.480Z,52.23
2024-04-15T10:21:17.720Z,51.78
2024-04-15T10:25:43.110Z,52.18
2024-04-15T10:30:16.187Z,51.72
2024-04-15T10:34:45.238Z,51.89
2024-04-15T10:39:19.704Z,51.77
2024-04-15T10:43:44.834Z,52.16
2024-04-15T10:48:10.659Z,51.75
2024-04-15T10:52:35.872Z,51.18
2024-04-15T10:57:04.395Z,50.79
2024-04-15T11:01:31.757Z,50.36
2024-04-15T11:05:57.293Z,50.31
2024-04-15T11:10:22.657Z,50.33
2024-04-15T11:14:57.436Z,50.24
2024-04-15T11:19:24.460Z,50.05
2024-04-15T11:23:49.722Z,49.49
2024-04-15T11:28:18.009Z,49.43
2024-04-15T11:32:47.471Z,49.42
2024-04-15T11:37:13.788Z,48.79
2024-04-15T11:41:39.056Z,48.60
2024-04-15T11:46:04.331Z,48.97
2024-04-15T11:50:32.541Z,48.03
2024-04-15T11:54:57.699Z,48.25
2024-04-15T11:59:23.805Z,48.29
2024-04-15T12:03:49.765Z,48.07
2024-04-15T12:08:17.637Z,47.86
2024-04-15T12:12:43.315Z,47.74
2024-04-15T12:17:09.144Z,47.76
2024-04-15T12:21:35.430Z,47.95
2024-04-15T12:26:03.934Z,48.08
2024-04-15T12:30:29.052Z,48.10
2024-04-15T12:34:54.918Z,48.26
2024-04-15T12:39:20.117Z,48.32
2024-04-15T12:43:50.477Z,48.32
2024-04-15T12:48:18.768Z,48.54
2024-04-15T12:52:44.690Z,48.20
2024-04-15T12:57:10.659Z,47.88
2024-04-15T13:01:50.403Z,47.78
2024-04-15T13:06:23.926Z,47.93
2024-04-15T13:10:49.194Z,48.31
2024-04-15T13:15:14.457Z,48.39
2024-04-15T13:19:42.612Z,48.87
2024-04-15T13:24:08.887Z,49.40
2024-04-15T13:28:34.446Z,49.85
2024-04-15T13:32:59.639Z,49.99
2024-04-15T13:37:28.290Z,50.35
2024-04-15T13:41:53.982Z,50.58
2024-04-15T13:46:20.063Z,50.85
2024-04-15T13:50:45.241Z,50.93
2024-04-15T13:55:13.486Z,51.47
2024-04-15T13:59:38.927Z,52.34
2024-04-15T14:04:04.578Z,54.00
2024-04-15T14:08:29.803Z,56.32
2024-04-15T14:12:57.884Z,56.90
2024-04-15T14:17:23.088Z,58.09
2024-04-15T14:21:48.240Z,59.62
2024-04-15T14:26:13.696Z,60.37
2024-04-15T14:30:42.139Z,61.60
2024-04-15T14:35:08.846Z,61.79
2024-04-15T14:39:34.397Z,62.74
2024-04-15T14:44:02.110Z,63.07
2024-04-15T14:48:31.509Z,63.41
2024-04-15T14:52:56.702Z,63.79
2024-04-15T14:57:22.080Z,64.33
2024-04-15T15:01:47.402Z,64.55
2024-04-15T15:06:15.990Z,64.92
2024-04-15T15:10:41.075Z,65.42
2024-04-15T15:15:06.917Z,65.79
2024-04-15T15:19:32.165Z,66.37
2024-04-15T15:24:00.355Z,66.58
2024-04-15T15:28:25.812Z,66.99
2024-04-15T15:32:51.342Z,66.98
2024-04-15T15:37:16.571Z,67.74
2024-04-15T15:41:45.157Z,68.21
2024-04-15T15:46:11.636Z,68.43
2024-04-15T15:50:37.236Z,69.07
2024-04-15T15:55:02.559Z,69.62
2024-04-15T15:59:31.435Z,69.56
2024-04-15T16:03:57.144Z,69.99
2024-04-15T16:08:23.318Z,70.26
2024-04-15T16:12:48.418Z,70.40
2024-04-15T16:17:16.801Z,71.10
2024-04-15T16:21:41.925Z,70.99
2024-04-15T16:26:07.920Z,71.10
2024-04-15T16:30:33.049Z,72.07
2024-04-15T16:35:01.121Z,71.81
2024-04-15T16:39:26.487Z,72.36
2024-04-15T16:43:52.988Z,72.44
2024-04-15T16:48:18.384Z,72.81
2024-04-15T16:52:46.852Z,73.03
2024-04-15T16:57:12.017Z,73.49
2024-04-15T17:01:39.728Z,74.28
2024-04-15T17:06:05.455Z,74.54
2024-04-15T17:10:34.102Z,74.68
2024-04-15T17:14:59.342Z,74.73
2024-04-15T17:19:25.131Z,75.14
2024-04-15T17:23:50.366Z,74.76
2024-04-15T17:28:18.958Z,75.02
2024-04-15T17:32:44.496Z,75.13
2024-04-15T17:37:12.279Z,75.17
2024-04-15T17:41:38.795Z,75.45
2024-04-15T17:46:08.028Z,75.78
2024-04-15T17:50:33.256Z,75.94
2024-04-15T17:54:58.980Z,75.97
2024-04-15T17:59:24.279Z,76.12
2024-04-15T18:03:53.007Z,76.27
2024-04-15T18:08:18.278Z,76.60
2024-04-15T18:12:45.569Z,77.04
2024-04-15T18:17:11.031Z,76.92
2024-04-15T18:21:45.144Z,76.68
2024-04-15T18:26:12.836Z,77.10
2024-04-15T18:30:38.443Z,77.03
2024-04-15T18:35:03.720Z,77.22
2024-04-15T18:39:32.150Z,77.41
2024-04-15T18:43:58.002Z,77.32
2024-04-15T18:48:24.246Z,77.64
2024-04-15T18:52:49.552Z,77.77
2024-04-15T18:57:18.105Z,77.83
2024-04-15T19:01:43.360Z,77.53
2024-04-15T19:06:10.710Z,77.56
2024-04-15T19:10:36.390Z,77.92
2024-04-15T19:15:12.859Z,78.04
2024-04-15T19:19:40.467Z,78.85
2024-04-15T19:24:05.809Z,78.76
2024-04-15T19:28:31.143Z,79.15
2024-04-15T19:32:59.605Z,79.36
2024-04-15T19:37:24.939Z,79.72
2024-04-15T19:41:50.496Z,79.89
2024-04-15T19:46:15.699Z,79.79
2024-04-15T19:50:43.909Z,79.50
2024-04-15T19:55:06.984Z,79.11
2024-04-15T19:59:32.569Z,79.58
2024-04-15T20:03:58.002Z,79.56
2024-04-15T20:08:27.764Z,78.85
2024-04-15T20:12:52.962Z,78.72
2024-04-15T20:17:31.032Z,79.21
2024-04-15T20:21:56.714Z,79.19
2024-04-15T20:26:25.767Z,79.43
2024-04-15T20:30:51.823Z,79.76
2024-04-15T20:35:18.505Z,79.64
2024-04-15T20:39:43.698Z,79.24
2024-04-15T20:44:11.739Z,80.06
2024-04-15T20:48:36.960Z,80.03
2024-04-15T20:53:05.732Z,80.33
2024-04-15T20:57:30.987Z,80.45
2024-04-15T21:01:59.374Z,80.66
2024-04-15T21:06:25.459Z,81.06
2024-04-15T21:10:51.495Z,80.46
2024-04-15T21:15:17.265Z,80.87
2024-04-15T21:19:45.908Z,81.04
2024-04-15T21:24:11.529Z,80.95
2024-04-15T21:28:37.148Z,80.77
2024-04-15T21:33:02.579Z,80.95
2024-04-15T21:37:31.175Z,81.22
2024-04-15T21:41:56.953Z,81.43
2024-04-15T21:46:22.653Z,81.34
2024-04-15T21:50:47.974Z,81.39
2024-04-15T21:55:16.248Z,81.34
2024-04-15T21:59:41.486Z,82.17
2024-04-15T22:04:07.787Z,82.40
2024-04-15T22:08:33.653Z,82.69
2024-04-15T22:13:02.956Z,82.96
2024-04-15T22:17:29.162Z,82.75
2024-04-15T22:21:54.831Z,82.70
2024-04-15T22:26:21.025Z,82.77
2024-04-15T22:30:49.197Z,83.49
2024-04-15T22:35:14.398Z,83.83
2024-04-15T22:39:40.088Z,83.88
2024-04-15T22:44:05.246Z,83.58
2024-04-15T22:48:34.351Z,84.26
2024-04-15T22:52:59.528Z,84.41
2024-04-15T22:57:25.031Z,84.79
2024-04-15T23:01:50.378Z,84.56
2024-04-15T23:06:18.567Z,84.49
2024-04-15T23:10:44.191Z,84.34
2024-04-15T23:15:10.174Z,84.40
2024-04-15T23:19:36.488Z,84.28
2024-04-15T23:24:04.791Z,83.94
2024-04-15T23:28:32.508Z,84.08
2024-04-15T23:32:58.137Z,83.94
2024-04-15T23:37:23.457Z,83.80
2024-04-15T23:41:51.228Z,83.78
2024-04-15T23:46:16.445Z,83.44
2024-04-15T23:51:00.108Z,83.29
2024-04-15T23:55:44.193Z,82.63
